createdAt,value
2023-02-13T00:00:12.590Z,5.80
2023-02-13T00:02:39.374Z,5.80
2023-02-13T00:05:06.802Z,5.80
2023-02-13T00:07:33.475Z,5.80
2023-02-13T00:10:00.150Z,5.70
2023-02-13T00:12:26.901Z,5.70
2023-02-13T00:14:54.085Z,5.70
2023-02-13T00:17:20.829Z,5.70
2023-02-13T00:19:47.615Z,5.70
2023-02-13T00:22:16.917Z,5.70
2023-02-13T00:24:44.001Z,5.60
2023-02-13T00:27:10.880Z,5.60
2023-02-13T00:29:37.641Z,5.60
2023-02-13T00:32:04.631Z,5.60
2023-02-13T00:34:31.472Z,5.50
2023-02-13T00:36:58.189Z,5.50
2023-02-13T00:39:25.050Z,5.50
2023-02-13T00:41:51.804Z,5.50
2023-02-13T00:44:18.478Z,5.40
2023-02-13T00:46:45.267Z,5.40
2023-02-13T00:49:12.014Z,5.40
2023-02-13T00:51:38.692Z,5.40
2023-02-13T00:54:05.514Z,5.40
2023-02-13T00:56:32.281Z,5.30
2023-02-13T00:58:59.095Z,5.30
2023-02-13T01:01:26.154Z,5.30
2023-02-13T01:03:52.956Z,5.30
2023-02-13T01:06:19.659Z,5.30
2023-02-13T01:08:46.455Z,5.30
2023-02-13T01:11:13.283Z,5.20
2023-02-13T01:13:40.194Z,5.20
2023-02-13T01:16:07.322Z,5.20
2023-02-13T01:18:34.086Z,5.20
2023-02-13T01:21:03.634Z,5.20
2023-02-13T01:23:38.874Z,5.10
2023-02-13T01:26:07.649Z,5.10
2023-02-13T01:28:35.098Z,5.00
2023-02-13T01:31:02.675Z,5.00
2023-02-13T01:33:30.401Z,5.00
2023-02-13T01:35:58.070Z,5.00
2023-02-13T01:38:24.799Z,5.00
2023-02-13T01:40:53.834Z,5.00
2023-02-13T01:43:24.298Z,4.90
2023-02-13T01:45:56.353Z,4.90
2023-02-13T01:48:26.452Z,4.90
2023-02-13T01:50:55.864Z,4.90
2023-02-13T01:53:48.071Z,4.90
2023-02-13T01:56:36.829Z,4.80
2023-02-13T01:59:11.269Z,4.80
2023-02-13T02:01:38.506Z,4.80
2023-02-13T02:04:31.577Z,4.80
2023-02-13T02:07:04.948Z,4.80
2023-02-13T02:09:35.658Z,4.70
2023-02-13T02:12:36.320Z,4.70
2023-02-13T02:15:05.011Z,4.70
2023-02-13T02:17:31.795Z,4.60
2023-02-13T02:20:04.784Z,4.70
2023-02-13T02:22:56.316Z,4.60
2023-02-13T02:26:03.642Z,4.60
2023-02-13T02:29:01.454Z,4.60
2023-02-13T02:32:01.779Z,4.60
2023-02-13T02:34:37.364Z,4.60
2023-02-13T02:37:38.191Z,4.60
2023-02-13T02:40:25.353Z,4.60
2023-02-13T02:42:57.875Z,4.50
2023-02-13T02:45:40.427Z,4.50
2023-02-13T02:48:32.465Z,4.50
2023-02-13T02:51:14.457Z,4.40
2023-02-13T02:53:51.572Z,4.50
2023-02-13T02:56:30.651Z,4.40
2023-02-13T02:59:25.487Z,4.40
2023-02-13T03:02:13.456Z,4.30
2023-02-13T03:05:06.543Z,4.30
2023-02-13T03:07:33.441Z,4.30
2023-02-13T03:10:40.923Z,4.20
2023-02-13T03:13:41.976Z,4.20
2023-02-13T03:16:35.479Z,4.20
2023-02-13T03:19:21.140Z,4.20
2023-02-13T03:22:22.735Z,4.20
2023-02-13T03:25:30.161Z,4.20
2023-02-13T03:28:54.400Z,4.10
2023-02-13T03:31:49.799Z,4.10
2023-02-13T03:34:47.149Z,4.10
2023-02-13T03:37:34.710Z,4.10
2023-02-13T03:40:15.513Z,4.00
2023-02-13T03:42:50.847Z,4.00
2023-02-13T03:45:48.779Z,4.00
2023-02-13T03:48:38.066Z,4.00
2023-02-13T03:51:08.574Z,4.00
2023-02-13T03:53:38.278Z,4.00
2023-02-13T03:56:24.956Z,4.00
2023-02-13T03:59:13.295Z,4.00
2023-02-13T04:01:41.241Z,4.00
2023-02-13T04:04:25.543Z,3.90
2023-02-13T04:07:02.924Z,3.90
2023-02-13T04:09:30.963Z,3.90
2023-02-13T04:12:46.887Z,3.90
2023-02-13T04:15:18.707Z,3.90
2023-02-13T04:18:17.950Z,3.90
2023-02-13T04:20:44.977Z,3.80
2023-02-13T04:23:13.019Z,3.80
2023-02-13T04:25:43.268Z,3.80
2023-02-13T04:28:10.129Z,3.80
2023-02-13T04:30:37.244Z,3.70
2023-02-13T04:33:04.176Z,3.70
2023-02-13T04:35:30.899Z,3.70
2023-02-13T04:37:57.596Z,3.70
2023-02-13T04:40:24.330Z,3.70
2023-02-13T04:42:51.140Z,3.70
2023-02-13T04:45:18.264Z,3.70
2023-02-13T04:47:51.394Z,3.60
2023-02-13T04:50:18.271Z,3.60
2023-02-13T04:52:45.115Z,3.60
2023-02-13T04:55:11.851Z,3.60
2023-02-13T04:57:38.531Z,3.60
2023-02-13T05:00:06.637Z,3.60
2023-02-13T05:02:33.373Z,3.60
2023-02-13T05:05:00.121Z,3.60
2023-02-13T05:07:26.816Z,3.60
2023-02-13T05:09:53.467Z,3.60
2023-02-13T05:12:20.116Z,3.50
2023-02-13T05:14:46.962Z,3.50
2023-02-13T05:17:13.726Z,3.50
2023-02-13T05:19:40.648Z,3.50
2023-02-13T05:22:26.807Z,4.90
2023-02-13T05:24:53.525Z,3.40
2023-02-13T05:27:20.226Z,3.40
2023-02-13T05:29:47.165Z,3.40
2023-02-13T05:32:13.912Z,3.30
2023-02-13T05:34:40.692Z,3.30
2023-02-13T05:37:07.416Z,3.30
2023-02-13T05:39:34.173Z,3.30
2023-02-13T05:42:00.870Z,3.30
2023-02-13T05:44:27.673Z,3.30
2023-02-13T05:46:54.331Z,3.30
2023-02-13T05:49:21.155Z,3.20
2023-02-13T05:51:47.979Z,3.20
2023-02-13T05:54:14.785Z,3.20
2023-02-13T05:56:41.716Z,3.20
2023-02-13T05:59:08.581Z,3.20
2023-02-13T06:01:35.365Z,3.20
2023-02-13T06:04:03.872Z,3.20
2023-02-13T06:06:31.052Z,3.10
2023-02-13T06:08:57.780Z,3.50
2023-02-13T06:11:24.512Z,3.10
2023-02-13T06:13:51.178Z,3.10
2023-02-13T06:16:17.976Z,3.10
2023-02-13T06:18:44.706Z,3.10
2023-02-13T06:21:11.393Z,3.10
2023-02-13T06:23:38.251Z,3.10
2023-02-13T06:26:07.432Z,3.10
2023-02-13T06:28:34.719Z,3.10
2023-02-13T06:31:02.126Z,3.10
2023-02-13T06:33:29.202Z,3.10
2023-02-13T06:35:55.862Z,3.10
2023-02-13T06:38:22.694Z,3.10
2023-02-13T06:40:50.059Z,3.10
2023-02-13T06:43:17.938Z,3.00
2023-02-13T06:45:46.911Z,3.00
2023-02-13T06:48:14.467Z,3.00
2023-02-13T06:50:41.360Z,3.00
2023-02-13T06:53:08.316Z,3.00
2023-02-13T06:55:35.991Z,3.00
2023-02-13T06:58:02.750Z,3.00
2023-02-13T07:00:29.547Z,3.00
2023-02-13T07:03:02.674Z,3.00
2023-02-13T07:05:29.760Z,3.00
2023-02-13T07:07:56.586Z,4.50
2023-02-13T07:10:23.556Z,3.00
2023-02-13T07:13:03.636Z,3.00
2023-02-13T07:15:33.211Z,3.00
2023-02-13T07:18:00.520Z,3.00
2023-02-13T07:20:28.200Z,3.00
2023-02-13T07:23:02.471Z,3.10
2023-02-13T07:25:29.734Z,3.10
2023-02-13T07:28:07.347Z,3.10
2023-02-13T07:30:34.985Z,3.10
2023-02-13T07:33:03.452Z,3.10
2023-02-13T07:35:30.420Z,3.10
2023-02-13T07:37:57.163Z,3.10
2023-02-13T07:40:23.958Z,3.10
2023-02-13T07:42:50.659Z,3.10
2023-02-13T07:45:17.490Z,3.20
2023-02-13T07:47:44.309Z,3.20
2023-02-13T07:50:11.746Z,3.20
2023-02-13T07:52:38.524Z,3.20
2023-02-13T07:55:06.280Z,3.20
2023-02-13T07:57:33.558Z,3.20
2023-02-13T08:00:00.484Z,3.30
2023-02-13T08:02:27.237Z,3.30
2023-02-13T08:04:54.009Z,3.30
2023-02-13T08:07:20.723Z,3.30
2023-02-13T08:10:06.338Z,3.40
2023-02-13T08:12:35.825Z,3.40
2023-02-13T08:15:03.049Z,3.50
2023-02-13T08:17:29.812Z,3.50
2023-02-13T08:19:56.589Z,3.50
2023-02-13T08:22:23.506Z,3.60
2023-02-13T08:24:50.227Z,3.70
2023-02-13T08:27:17.068Z,3.70
2023-02-13T08:29:43.937Z,3.80
2023-02-13T08:32:10.837Z,3.90
2023-02-13T08:34:37.649Z,4.10
2023-02-13T08:37:05.196Z,4.30
2023-02-13T08:39:32.009Z,4.40
2023-02-13T08:41:58.735Z,4.60
2023-02-13T08:44:25.510Z,4.80
2023-02-13T08:46:52.423Z,5.00
2023-02-13T08:49:19.369Z,5.20
2023-02-13T08:51:46.141Z,5.40
2023-02-13T08:54:12.880Z,5.50
2023-02-13T08:56:39.632Z,5.60
2023-02-13T08:59:06.354Z,5.70
2023-02-13T09:01:33.151Z,5.70
2023-02-13T09:03:59.942Z,5.70
2023-02-13T09:06:28.454Z,5.80
2023-02-13T09:08:55.631Z,5.80
2023-02-13T09:11:23.569Z,6.00
2023-02-13T09:13:53.973Z,6.10
2023-02-13T09:16:21.217Z,6.20
2023-02-13T09:18:48.916Z,6.20
2023-02-13T09:21:16.476Z,6.30
2023-02-13T09:23:43.291Z,6.30
2023-02-13T09:26:13.416Z,6.30
2023-02-13T09:28:41.126Z,6.30
2023-02-13T09:31:10.111Z,6.40
2023-02-13T09:33:37.216Z,6.40
2023-02-13T09:36:09.524Z,6.50
2023-02-13T09:38:36.333Z,6.50
2023-02-13T09:41:07.852Z,6.50
2023-02-13T09:44:02.576Z,6.50
2023-02-13T09:46:32.024Z,6.70
2023-02-13T09:49:02.747Z,6.70
2023-02-13T09:51:29.690Z,6.80
2023-02-13T09:54:07.717Z,6.90
2023-02-13T09:56:49.512Z,7.00
2023-02-13T09:59:42.706Z,7.10
2023-02-13T10:02:27.815Z,7.20
2023-02-13T10:05:19.497Z,7.60
2023-02-13T10:08:06.661Z,7.90
2023-02-13T10:11:04.939Z,8.00
2023-02-13T10:13:55.711Z,8.10
2023-02-13T10:16:27.284Z,8.30
2023-02-13T10:19:02.377Z,8.40
2023-02-13T10:21:34.269Z,8.50
2023-02-13T10:24:39.567Z,8.60
2023-02-13T10:27:26.126Z,8.80
2023-02-13T10:30:06.930Z,9.10
2023-02-13T10:33:22.005Z,9.20
2023-02-13T10:36:11.482Z,9.20
2023-02-13T10:39:04.611Z,9.20
2023-02-13T10:41:46.097Z,9.20
2023-02-13T10:44:31.590Z,9.40
2023-02-13T10:47:01.283Z,9.60
2023-02-13T10:49:46.818Z,9.80
2023-02-13T10:52:39.467Z,9.80
2023-02-13T10:55:30.493Z,9.90
2023-02-13T10:58:38.423Z,10.00
2023-02-13T11:01:13.807Z,10.00
2023-02-13T11:03:40.670Z,10.20
2023-02-13T11:06:14.123Z,10.30
2023-02-13T11:08:44.197Z,10.30
2023-02-13T11:11:34.359Z,10.40
2023-02-13T11:14:19.306Z,10.50
2023-02-13T11:17:15.590Z,10.60
2023-02-13T11:19:51.758Z,10.70
2023-02-13T11:22:37.020Z,10.80
2023-02-13T11:25:22.285Z,11.10
2023-02-13T11:27:51.405Z,11.10
2023-02-13T11:30:24.068Z,11.00
2023-02-13T11:33:17.344Z,11.10
2023-02-13T11:35:47.893Z,11.30
2023-02-13T11:38:20.108Z,11.50
2023-02-13T11:40:53.513Z,11.60
2023-02-13T11:43:47.392Z,11.60
2023-02-13T11:46:25.665Z,11.50
2023-02-13T11:49:04.682Z,11.60
2023-02-13T11:51:42.873Z,11.60
2023-02-13T11:54:35.577Z,11.50
2023-02-13T11:57:19.138Z,11.50
2023-02-13T11:59:47.761Z,11.60
2023-02-13T12:02:35.589Z,11.50
2023-02-13T12:05:28.412Z,11.60
2023-02-13T12:08:01.372Z,11.70
2023-02-13T12:10:31.575Z,11.70
2023-02-13T12:13:02.206Z,11.90
2023-02-13T12:15:35.298Z,11.90
2023-02-13T12:18:20.656Z,12.10
2023-02-13T12:21:12.526Z,12.20
2023-02-13T12:24:08.529Z,12.30
2023-02-13T12:26:40.995Z,12.50
2023-02-13T12:29:30.202Z,12.60
2023-02-13T12:32:07.500Z,12.70
2023-02-13T12:35:07.159Z,12.60
2023-02-13T12:37:39.692Z,12.70
2023-02-13T12:40:26.596Z,12.80
2023-02-13T12:43:04.254Z,13.00
2023-02-13T12:45:31.033Z,13.10
2023-02-13T12:48:27.840Z,13.20
2023-02-13T12:51:39.123Z,13.30
2023-02-13T12:54:37.530Z,13.40
2023-02-13T12:57:19.642Z,13.60
2023-02-13T13:00:24.058Z,13.70
2023-02-13T13:03:15.302Z,13.60
2023-02-13T13:05:45.242Z,13.70
2023-02-13T13:08:27.939Z,13.80
2023-02-13T13:11:15.970Z,14.10
2023-02-13T13:14:11.374Z,14.30
2023-02-13T13:16:57.723Z,14.40
2023-02-13T13:19:39.397Z,14.60
2023-02-13T13:22:30.362Z,14.70
2023-02-13T13:25:23.452Z,14.70
2023-02-13T13:27:56.766Z,14.70
2023-02-13T13:30:30.203Z,14.90
2023-02-13T13:33:19.991Z,14.90
2023-02-13T13:36:05.558Z,15.00
2023-02-13T13:39:21.702Z,14.90
2023-02-13T13:41:55.233Z,14.90
2023-02-13T13:44:27.858Z,14.90
2023-02-13T13:46:57.593Z,15.00
2023-02-13T13:49:52.737Z,15.00
2023-02-13T13:52:22.460Z,15.10
2023-02-13T13:54:52.560Z,15.10
2023-02-13T13:57:57.507Z,15.20
2023-02-13T14:00:29.850Z,15.00
2023-02-13T14:02:59.301Z,15.00
2023-02-13T14:05:27.683Z,15.00
2023-02-13T14:07:59.337Z,15.00
2023-02-13T14:10:26.027Z,15.00
2023-02-13T14:12:55.730Z,14.80
2023-02-13T14:15:45.563Z,14.70
2023-02-13T14:18:20.224Z,14.50
2023-02-13T14:20:50.468Z,14.40
2023-02-13T14:23:21.562Z,14.40
2023-02-13T14:25:48.623Z,14.40
2023-02-13T14:28:23.141Z,14.40
2023-02-13T14:30:51.537Z,14.40
2023-02-13T14:33:30.286Z,14.30
2023-02-13T14:36:21.598Z,14.20
2023-02-13T14:39:01.194Z,14.00
2023-02-13T14:41:55.428Z,13.90
2023-02-13T14:44:44.985Z,13.70
2023-02-13T14:47:30.257Z,13.50
2023-02-13T14:49:59.563Z,13.40
2023-02-13T14:52:33.198Z,13.30
2023-02-13T14:55:04.439Z,13.10
2023-02-13T14:57:34.558Z,13.00
2023-02-13T15:00:31.669Z,12.80
2023-02-13T15:03:08.041Z,12.70
2023-02-13T15:05:35.904Z,12.50
2023-02-13T15:08:13.393Z,12.40
2023-02-13T15:10:41.918Z,12.30
2023-02-13T15:13:22.688Z,12.20
2023-02-13T15:15:55.787Z,12.20
2023-02-13T15:18:47.936Z,12.00
2023-02-13T15:21:21.587Z,12.00
2023-02-13T15:23:55.350Z,11.90
2023-02-13T15:26:26.333Z,11.40
2023-02-13T15:29:01.584Z,11.70
2023-02-13T15:31:36.722Z,11.70
2023-02-13T15:34:03.585Z,11.60
2023-02-13T15:36:41.399Z,11.50
2023-02-13T15:39:15.631Z,11.50
2023-02-13T15:41:54.730Z,11.40
2023-02-13T15:44:34.133Z,11.40
2023-02-13T15:47:29.921Z,11.30
2023-02-13T15:49:57.263Z,11.20
2023-02-13T15:52:31.815Z,11.20
2023-02-13T15:54:59.229Z,11.10
2023-02-13T15:57:27.581Z,11.10
2023-02-13T16:00:00.371Z,11.00
2023-02-13T16:02:40.091Z,11.00
2023-02-13T16:05:07.820Z,11.00
2023-02-13T16:07:58.674Z,10.90
2023-02-13T16:10:36.477Z,10.90
2023-02-13T16:13:06.506Z,10.90
2023-02-13T16:15:36.844Z,10.80
2023-02-13T16:18:06.241Z,10.80
2023-02-13T16:20:35.007Z,10.80
2023-02-13T16:23:06.556Z,10.70
2023-02-13T16:25:35.525Z,10.60
2023-02-13T16:28:17.963Z,10.60
2023-02-13T16:30:50.899Z,10.50
2023-02-13T16:33:20.608Z,10.40
2023-02-13T16:35:57.039Z,10.40
2023-02-13T16:38:41.544Z,10.40
2023-02-13T16:41:17.508Z,10.20
2023-02-13T16:43:49.073Z,10.10
2023-02-13T16:46:17.710Z,10.10
2023-02-13T16:48:47.961Z,10.00
2023-02-13T16:51:15.864Z,10.00
2023-02-13T16:53:42.629Z,10.00
2023-02-13T16:56:11.351Z,10.00
2023-02-13T16:58:38.137Z,9.90
2023-02-13T17:01:06.003Z,9.90
2023-02-13T17:03:33.041Z,9.90
2023-02-13T17:06:03.565Z,9.80
2023-02-13T17:08:33.376Z,9.80
2023-02-13T17:11:07.984Z,9.70
2023-02-13T17:13:35.116Z,9.70
2023-02-13T17:16:01.934Z,9.60
2023-02-13T17:18:28.758Z,9.50
2023-02-13T17:20:55.540Z,9.50
2023-02-13T17:23:24.584Z,9.50
2023-02-13T17:25:53.746Z,9.40
2023-02-13T17:28:24.231Z,9.30
2023-02-13T17:30:54.114Z,9.30
2023-02-13T17:33:26.731Z,9.20
2023-02-13T17:35:54.189Z,9.20
2023-02-13T17:38:21.391Z,9.10
2023-02-13T17:40:48.403Z,9.10
2023-02-13T17:43:19.040Z,9.10
2023-02-13T17:45:46.482Z,9.00
2023-02-13T17:48:13.412Z,8.90
2023-02-13T17:50:40.299Z,8.90
2023-02-13T17:53:16.378Z,9.40
2023-02-13T17:55:43.128Z,9.50
2023-02-13T17:58:09.888Z,9.60
2023-02-13T18:00:36.722Z,9.70
2023-02-13T18:03:04.599Z,9.60
2023-02-13T18:05:33.108Z,9.50
2023-02-13T18:08:03.632Z,9.30
2023-02-13T18:10:33.587Z,9.20
2023-02-13T18:13:04.378Z,9.00
2023-02-13T18:15:39.193Z,8.90
2023-02-13T18:18:06.224Z,8.90
2023-02-13T18:20:33.156Z,8.80
2023-02-13T18:23:11.486Z,8.70
2023-02-13T18:25:38.251Z,8.70
2023-02-13T18:28:09.713Z,8.60
2023-02-13T18:30:41.724Z,8.50
2023-02-13T18:33:08.584Z,8.50
2023-02-13T18:35:42.165Z,8.40
2023-02-13T18:38:08.923Z,8.40
2023-02-13T18:40:36.232Z,8.40
2023-02-13T18:43:02.910Z,8.30
2023-02-13T18:45:33.066Z,8.30
2023-02-13T18:48:03.329Z,8.30
2023-02-13T18:50:30.088Z,8.20
2023-02-13T18:52:56.886Z,8.20
2023-02-13T18:55:23.663Z,8.20
2023-02-13T18:57:53.680Z,8.20
2023-02-13T19:00:22.252Z,8.10
2023-02-13T19:02:49.053Z,8.10
2023-02-13T19:05:15.868Z,8.10
2023-02-13T19:07:42.632Z,8.00
2023-02-13T19:10:10.003Z,8.00
2023-02-13T19:12:36.952Z,7.90
2023-02-13T19:15:04.444Z,7.90
2023-02-13T19:17:31.292Z,7.90
2023-02-13T19:20:07.245Z,7.90
2023-02-13T19:22:34.112Z,7.90
2023-02-13T19:25:01.753Z,7.80
2023-02-13T19:27:28.789Z,7.80
2023-02-13T19:29:55.553Z,7.70
2023-02-13T19:32:22.325Z,7.70
2023-02-13T19:34:49.149Z,7.70
2023-02-13T19:37:15.876Z,7.70
2023-02-13T19:39:42.686Z,7.60
2023-02-13T19:42:09.586Z,7.60
2023-02-13T19:44:36.271Z,7.50
2023-02-13T19:47:03.026Z,7.50
2023-02-13T19:49:29.834Z,7.50
2023-02-13T19:51:56.579Z,7.50
2023-02-13T19:54:23.505Z,7.40
2023-02-13T19:56:50.564Z,7.40
2023-02-13T19:59:17.408Z,7.40
2023-02-13T20:01:45.668Z,7.40
2023-02-13T20:04:12.471Z,7.30
2023-02-13T20:06:39.701Z,7.20
2023-02-13T20:09:12.101Z,7.30
2023-02-13T20:11:40.592Z,7.20
2023-02-13T20:14:14.326Z,7.20
2023-02-13T20:16:43.023Z,7.20
2023-02-13T20:19:11.752Z,7.10
2023-02-13T20:21:38.977Z,7.10
2023-02-13T20:24:06.104Z,7.10
2023-02-13T20:26:33.363Z,7.10
2023-02-13T20:29:00.189Z,7.10
2023-02-13T20:31:29.367Z,7.00
2023-02-13T20:33:57.915Z,6.90
2023-02-13T20:36:27.798Z,6.90
2023-02-13T20:38:57.835Z,6.90
2023-02-13T20:41:27.373Z,6.80
2023-02-13T20:44:02.994Z,6.80
2023-02-13T20:46:35.138Z,6.80
2023-02-13T20:49:01.934Z,6.80
2023-02-13T20:51:29.590Z,6.70
2023-02-13T20:53:56.405Z,6.70
2023-02-13T20:56:25.742Z,6.70
2023-02-13T20:58:55.563Z,6.80
2023-02-13T21:01:27.931Z,6.60
2023-02-13T21:03:55.935Z,6.60
2023-02-13T21:06:31.902Z,6.60
2023-02-13T21:08:58.964Z,6.50
2023-02-13T21:11:28.244Z,6.50
2023-02-13T21:13:56.516Z,6.40
2023-02-13T21:16:26.510Z,6.40
2023-02-13T21:18:56.427Z,6.40
2023-02-13T21:21:25.086Z,6.40
2023-02-13T21:23:56.901Z,6.30
2023-02-13T21:26:24.607Z,6.30
2023-02-13T21:28:52.109Z,6.20
2023-02-13T21:31:29.299Z,6.20
2023-02-13T21:34:05.247Z,6.20
2023-02-13T21:36:33.880Z,6.10
2023-02-13T21:39:00.927Z,6.10
2023-02-13T21:41:27.850Z,6.10
2023-02-13T21:43:55.110Z,6.10
2023-02-13T21:46:25.149Z,6.10
2023-02-13T21:49:00.563Z,6.00
2023-02-13T21:51:29.449Z,6.00
2023-02-13T21:53:56.640Z,5.90
2023-02-13T21:56:26.323Z,5.90
2023-02-13T21:58:53.225Z,5.90
2023-02-13T22:01:26.405Z,5.90
2023-02-13T22:03:57.832Z,5.90
2023-02-13T22:06:26.098Z,5.80
2023-02-13T22:08:58.056Z,5.80
2023-02-13T22:11:25.300Z,5.80
2023-02-13T22:13:55.889Z,5.80
2023-02-13T22:16:23.463Z,5.80
2023-02-13T22:18:50.721Z,5.80
2023-02-13T22:21:23.001Z,5.80
2023-02-13T22:23:50.361Z,5.70
2023-02-13T22:26:19.806Z,5.70
2023-02-13T22:28:47.062Z,5.70
2023-02-13T22:31:15.168Z,5.60
2023-02-13T22:33:42.939Z,5.60
2023-02-13T22:36:12.591Z,5.50
2023-02-13T22:38:40.788Z,5.50
2023-02-13T22:41:14.288Z,5.50
2023-02-13T22:43:42.107Z,5.50
2023-02-13T22:46:16.158Z,5.40
2023-02-13T22:48:46.850Z,5.40
2023-02-13T22:51:19.723Z,5.30
2023-02-13T22:53:48.373Z,5.30
2023-02-13T22:56:15.227Z,5.30
2023-02-13T22:58:41.942Z,5.30
2023-02-13T23:01:14.545Z,5.30
2023-02-13T23:03:42.016Z,5.30
2023-02-13T23:06:10.522Z,5.20
2023-02-13T23:08:38.441Z,5.20
2023-02-13T23:11:31.807Z,5.10
2023-02-13T23:13:59.038Z,5.10
2023-02-13T23:16:26.952Z,5.10
2023-02-13T23:18:55.703Z,5.10
2023-02-13T23:21:22.728Z,5.20
2023-02-13T23:23:49.708Z,5.10
2023-02-13T23:26:16.497Z,5.10
2023-02-13T23:28:43.329Z,5.10
2023-02-13T23:31:10.460Z,5.10
2023-02-13T23:33:37.413Z,5.00
2023-02-13T23:36:04.539Z,5.00
2023-02-13T23:38:31.340Z,5.00
2023-02-13T23:41:13.621Z,5.00
2023-02-13T23:43:40.397Z,4.90
2023-02-13T23:46:07.683Z,4.90
2023-02-13T23:48:34.873Z,4.90
2023-02-13T23:51:01.976Z,4.90
2023-02-13T23:53:29.100Z,4.90
2023-02-13T23:55:58.946Z,4.90
2023-02-13T23:58:25.701Z,4.90
